createdAt,value
2019-05-01T00:01:04.189Z,14.80
2019-05-01T00:04:04.531Z,14.80
2019-05-01T00:06:40.110Z,14.80
2019-05-01T00:09:11.204Z,14.80
2019-05-01T00:11:40.626Z,14.70
2019-05-01T00:14:10.201Z,14.70
2019-05-01T00:16:41.895Z,14.70
2019-05-01T00:19:11.345Z,14.60
2019-05-01T00:21:40.789Z,14.60
2019-05-01T00:24:10.144Z,14.40
2019-05-01T00:26:39.482Z,14.30
2019-05-01T00:29:08.899Z,14.30
2019-05-01T00:31:38.379Z,14.30
2019-05-01T00:34:07.811Z,14.30
2019-05-01T00:36:37.254Z,14.40
2019-05-01T00:39:08.350Z,14.40
2019-05-01T00:41:37.745Z,14.40
2019-05-01T00:44:07.081Z,14.40
2019-05-01T00:46:36.547Z,14.50
2019-05-01T00:49:05.993Z,14.50
2019-05-01T00:51:35.417Z,14.50
2019-05-01T00:54:04.822Z,14.50
2019-05-01T00:57:02.016Z,14.50
2019-05-01T00:59:39.894Z,14.50
2019-05-01T01:02:31.170Z,14.50
2019-05-01T01:05:00.597Z,14.50
2019-05-01T01:07:30.022Z,14.50
2019-05-01T01:09:59.391Z,14.50
2019-05-01T01:12:28.812Z,14.50
2019-05-01T01:14:58.173Z,14.50
2019-05-01T01:17:27.629Z,14.50
2019-05-01T01:19:56.990Z,14.50
2019-05-01T01:22:26.441Z,14.50
2019-05-01T01:24:55.867Z,14.50
2019-05-01T01:27:26.262Z,14.50
2019-05-01T01:29:55.683Z,14.40
2019-05-01T01:32:25.056Z,14.40
2019-05-01T01:34:54.433Z,14.40
2019-05-01T01:37:23.782Z,14.40
2019-05-01T01:39:53.227Z,14.30
2019-05-01T01:42:22.668Z,14.30
2019-05-01T01:44:58.279Z,14.30
2019-05-01T01:47:27.670Z,14.30
2019-05-01T01:49:57.923Z,14.30
2019-05-01T01:52:28.065Z,14.30
2019-05-01T01:54:57.892Z,14.30
2019-05-01T01:57:27.360Z,14.30
2019-05-01T01:59:57.139Z,14.20
2019-05-01T02:02:51.392Z,14.20
2019-05-01T02:05:24.719Z,14.20
2019-05-01T02:07:54.289Z,14.20
2019-05-01T02:10:23.943Z,14.20
2019-05-01T02:12:53.500Z,14.20
2019-05-01T02:15:23.014Z,14.20
2019-05-01T02:17:52.343Z,14.20
2019-05-01T02:20:22.715Z,14.20
2019-05-01T02:22:52.174Z,14.10
2019-05-01T02:25:22.484Z,14.10
2019-05-01T02:28:11.674Z,14.10
2019-05-01T02:30:44.615Z,14.10
2019-05-01T02:33:14.725Z,14.10
2019-05-01T02:35:45.441Z,14.00
2019-05-01T02:38:17.295Z,14.00
2019-05-01T02:40:56.112Z,14.00
2019-05-01T02:43:28.718Z,14.00
2019-05-01T02:46:01.067Z,14.00
2019-05-01T02:48:34.494Z,14.00
2019-05-01T02:51:05.527Z,13.90
2019-05-01T02:53:38.254Z,13.90
2019-05-01T02:56:43.286Z,13.90
2019-05-01T02:59:13.495Z,13.90
2019-05-01T03:01:47.868Z,13.90
2019-05-01T03:04:14.596Z,13.90
2019-05-01T03:06:44.308Z,13.90
2019-05-01T03:09:13.930Z,13.90
2019-05-01T03:11:45.470Z,13.90
2019-05-01T03:14:19.760Z,13.90
2019-05-01T03:16:51.688Z,13.80
2019-05-01T03:19:45.261Z,13.90
2019-05-01T03:22:28.125Z,13.90
2019-05-01T03:24:57.527Z,13.80
2019-05-01T03:27:26.927Z,13.80
2019-05-01T03:29:56.728Z,13.80
2019-05-01T03:32:26.245Z,13.80
2019-05-01T03:34:56.118Z,13.70
2019-05-01T03:37:26.236Z,13.40
2019-05-01T03:39:55.598Z,13.30
2019-05-01T03:42:28.320Z,13.20
2019-05-01T03:44:57.971Z,13.20
2019-05-01T03:47:27.307Z,13.10
2019-05-01T03:49:56.926Z,13.00
2019-05-01T03:52:26.727Z,13.00
2019-05-01T03:54:57.307Z,13.00
2019-05-01T03:57:26.955Z,12.90
2019-05-01T03:59:57.113Z,12.90
2019-05-01T04:02:50.295Z,12.90
2019-05-01T04:05:19.691Z,12.90
2019-05-01T04:07:49.215Z,12.90
2019-05-01T04:10:19.187Z,12.90
2019-05-01T04:12:48.531Z,12.90
2019-05-01T04:15:17.929Z,12.90
2019-05-01T04:17:53.828Z,12.90
2019-05-01T04:20:23.131Z,12.90
2019-05-01T04:22:53.231Z,12.90
2019-05-01T04:25:23.509Z,13.00
2019-05-01T04:27:58.550Z,13.00
2019-05-01T04:30:48.027Z,13.00
2019-05-01T04:33:19.079Z,13.00
2019-05-01T04:36:02.772Z,13.00
2019-05-01T04:38:32.197Z,13.10
2019-05-01T04:41:01.662Z,13.10
2019-05-01T04:43:31.244Z,13.10
2019-05-01T04:46:01.352Z,13.10
2019-05-01T04:48:30.984Z,13.10
2019-05-01T04:51:00.576Z,13.10
2019-05-01T04:53:30.501Z,13.10
2019-05-01T04:56:00.375Z,13.10
2019-05-01T04:58:29.850Z,13.10
2019-05-01T05:00:59.424Z,13.10
2019-05-01T05:03:29.176Z,13.20
2019-05-01T05:05:58.552Z,13.60
2019-05-01T05:08:28.168Z,14.20
2019-05-01T05:10:59.525Z,14.80
2019-05-01T05:13:46.860Z,15.20
2019-05-01T05:16:40.123Z,15.40
2019-05-01T05:19:10.156Z,15.60
2019-05-01T05:21:39.673Z,15.70
2019-05-01T05:24:09.156Z,15.70
2019-05-01T05:26:38.712Z,15.70
2019-05-01T05:29:08.142Z,15.70
2019-05-01T05:31:38.181Z,15.70
2019-05-01T05:34:09.012Z,15.70
2019-05-01T05:36:40.492Z,15.70
2019-05-01T05:39:20.213Z,15.70
2019-05-01T05:41:51.063Z,15.80
2019-05-01T05:44:20.537Z,15.80
2019-05-01T05:46:49.909Z,15.80
2019-05-01T05:49:20.483Z,15.60
2019-05-01T05:51:57.884Z,15.50
2019-05-01T05:54:56.351Z,15.40
2019-05-01T05:57:35.043Z,15.40
2019-05-01T06:00:18.427Z,15.50
2019-05-01T06:03:08.103Z,15.40
2019-05-01T06:05:48.101Z,15.40
2019-05-01T06:08:24.335Z,15.40
2019-05-01T06:11:20.834Z,15.50
2019-05-01T06:14:12.225Z,15.60
2019-05-01T06:17:12.938Z,15.60
2019-05-01T06:19:52.911Z,15.50
2019-05-01T06:22:45.211Z,15.50
2019-05-01T06:25:22.323Z,15.50
2019-05-01T06:27:50.944Z,15.60
2019-05-01T06:30:20.366Z,15.60
2019-05-01T06:32:49.867Z,15.60
2019-05-01T06:35:19.707Z,15.60
2019-05-01T06:38:05.433Z,15.60
2019-05-01T06:40:41.139Z,15.60
2019-05-01T06:43:25.122Z,15.70
2019-05-01T06:46:05.131Z,15.60
2019-05-01T06:48:36.097Z,15.70
2019-05-01T06:51:27.293Z,15.70
2019-05-01T06:53:56.748Z,15.70
2019-05-01T06:56:26.210Z,15.70
2019-05-01T06:58:56.454Z,15.70
2019-05-01T07:01:26.800Z,15.70
2019-05-01T07:04:03.577Z,15.70
2019-05-01T07:06:31.130Z,15.80
2019-05-01T07:08:59.250Z,15.80
2019-05-01T07:11:29.104Z,15.80
2019-05-01T07:13:59.047Z,15.90
2019-05-01T07:16:28.391Z,15.90
2019-05-01T07:19:05.721Z,16.00
2019-05-01T07:21:32.630Z,16.00
2019-05-01T07:24:02.761Z,15.90
2019-05-01T07:26:32.123Z,16.00
2019-05-01T07:29:06.029Z,16.00
2019-05-01T07:31:35.655Z,16.00
2019-05-01T07:34:16.057Z,16.10
2019-05-01T07:36:36.417Z,16.10
2019-05-01T07:39:09.950Z,16.10
2019-05-01T07:41:39.083Z,16.20
2019-05-01T07:44:17.240Z,16.20
2019-05-01T07:46:54.077Z,16.20
2019-05-01T07:49:39.510Z,16.20
2019-05-01T07:52:12.525Z,16.30
2019-05-01T07:54:42.442Z,16.30
2019-05-01T07:57:11.320Z,16.30
2019-05-01T07:59:40.733Z,16.30
2019-05-01T08:02:12.941Z,16.30
2019-05-01T08:04:42.299Z,16.40
2019-05-01T08:07:11.704Z,16.40
2019-05-01T08:09:41.190Z,16.50
2019-05-01T08:12:10.726Z,16.50
2019-05-01T08:14:40.076Z,16.50
2019-05-01T08:17:12.802Z,16.50
2019-05-01T08:20:03.161Z,16.60
2019-05-01T08:22:37.343Z,16.60
2019-05-01T08:25:06.705Z,16.60
2019-05-01T08:27:56.276Z,16.60
2019-05-01T08:30:48.091Z,16.70
2019-05-01T08:33:36.159Z,16.60
2019-05-01T08:36:06.725Z,16.70
2019-05-01T08:38:36.727Z,16.70
2019-05-01T08:41:06.097Z,16.70
2019-05-01T08:43:36.765Z,16.70
2019-05-01T08:46:30.151Z,16.70
2019-05-01T08:49:12.626Z,16.80
2019-05-01T08:51:42.367Z,16.80
2019-05-01T08:54:11.803Z,16.80
2019-05-01T08:56:43.640Z,16.80
2019-05-01T08:59:12.273Z,16.90
2019-05-01T09:01:45.781Z,16.80
2019-05-01T09:04:13.496Z,16.80
2019-05-01T09:06:43.936Z,16.80
2019-05-01T09:09:14.253Z,16.80
2019-05-01T09:11:43.615Z,16.90
2019-05-01T09:14:13.077Z,16.90
2019-05-01T09:16:42.510Z,17.00
2019-05-01T09:19:11.860Z,17.00
2019-05-01T09:21:41.256Z,17.10
2019-05-01T09:24:10.686Z,17.10
2019-05-01T09:26:50.114Z,17.10
2019-05-01T09:29:25.219Z,17.20
2019-05-01T09:31:54.746Z,17.20
2019-05-01T09:34:24.092Z,17.20
2019-05-01T09:36:53.547Z,17.10
2019-05-01T09:39:24.292Z,17.10
2019-05-01T09:41:53.637Z,17.10
2019-05-01T09:44:23.002Z,17.10
2019-05-01T09:46:52.340Z,17.00
2019-05-01T09:49:22.386Z,17.00
2019-05-01T09:52:13.462Z,17.10
2019-05-01T09:54:58.385Z,17.10
2019-05-01T09:57:27.735Z,17.10
2019-05-01T09:59:57.113Z,17.20
2019-05-01T10:02:26.611Z,17.30
2019-05-01T10:04:55.937Z,17.30
2019-05-01T10:07:29.117Z,17.30
2019-05-01T10:09:56.414Z,17.30
2019-05-01T10:12:25.760Z,17.30
2019-05-01T10:14:55.151Z,17.30
2019-05-01T10:17:24.498Z,17.30
2019-05-01T10:19:53.838Z,17.30
2019-05-01T10:22:23.203Z,17.30
2019-05-01T10:24:52.546Z,17.30
2019-05-01T10:27:25.327Z,17.30
2019-05-01T10:30:19.410Z,17.40
2019-05-01T10:32:57.779Z,17.30
2019-05-01T10:35:43.921Z,17.30
2019-05-01T10:38:13.279Z,17.40
2019-05-01T10:40:42.747Z,17.30
2019-05-01T10:43:12.176Z,17.30
2019-05-01T10:45:41.601Z,17.30
2019-05-01T10:48:11.083Z,17.40
2019-05-01T10:50:40.456Z,17.40
2019-05-01T10:53:09.797Z,17.40
2019-05-01T10:55:39.242Z,17.40
2019-05-01T10:58:12.686Z,17.50
2019-05-01T11:00:41.324Z,17.50
2019-05-01T11:03:10.716Z,17.50
2019-05-01T11:05:40.097Z,17.60
2019-05-01T11:08:09.558Z,17.70
2019-05-01T11:10:39.033Z,17.70
2019-05-01T11:13:08.403Z,17.70
2019-05-01T11:15:38.963Z,17.70
2019-05-01T11:18:08.424Z,17.80
2019-05-01T11:20:37.888Z,17.70
2019-05-01T11:23:07.612Z,17.70
2019-05-01T11:25:38.648Z,17.70
2019-05-01T11:28:08.235Z,17.70
2019-05-01T11:30:37.631Z,17.70
2019-05-01T11:33:19.004Z,17.70
2019-05-01T11:36:13.351Z,17.70
2019-05-01T11:38:49.465Z,17.80
2019-05-01T11:41:37.840Z,17.80
2019-05-01T11:44:07.196Z,17.80
2019-05-01T11:46:36.597Z,17.90
2019-05-01T11:49:06.033Z,17.90
2019-05-01T11:51:35.428Z,18.00
2019-05-01T11:54:04.899Z,18.00
2019-05-01T11:56:34.344Z,18.00
2019-05-01T11:59:03.818Z,18.10
2019-05-01T12:01:33.282Z,18.10
2019-05-01T12:04:02.718Z,18.10
2019-05-01T12:06:32.286Z,18.10
2019-05-01T12:09:01.627Z,18.00
2019-05-01T12:11:33.370Z,18.10
2019-05-01T12:14:02.847Z,18.10
2019-05-01T12:16:49.839Z,18.10
2019-05-01T12:19:20.353Z,18.10
2019-05-01T12:21:49.763Z,18.20
2019-05-01T12:24:19.161Z,18.20
2019-05-01T12:26:48.548Z,18.10
2019-05-01T12:29:18.011Z,18.20
2019-05-01T12:31:47.475Z,18.30
2019-05-01T12:34:16.897Z,18.30
2019-05-01T12:36:47.281Z,18.30
2019-05-01T12:39:17.159Z,18.30
2019-05-01T12:41:55.143Z,18.30
2019-05-01T12:44:24.606Z,18.30
2019-05-01T12:47:10.218Z,18.30
2019-05-01T12:49:39.636Z,18.30
2019-05-01T12:52:12.775Z,18.40
2019-05-01T12:54:52.100Z,18.40
2019-05-01T12:57:21.866Z,18.50
2019-05-01T12:59:51.203Z,18.50
2019-05-01T13:02:20.611Z,18.50
2019-05-01T13:04:49.950Z,18.60
2019-05-01T13:07:19.992Z,18.50
2019-05-01T13:09:49.359Z,18.60
2019-05-01T13:12:18.755Z,18.60
2019-05-01T13:14:48.141Z,18.60
2019-05-01T13:17:17.500Z,18.60
2019-05-01T13:19:46.879Z,18.70
2019-05-01T13:22:16.305Z,18.60
2019-05-01T13:24:51.514Z,18.70
2019-05-01T13:27:26.733Z,18.70
2019-05-01T13:30:17.829Z,18.80
2019-05-01T13:32:49.569Z,18.80
2019-05-01T13:35:19.009Z,18.80
2019-05-01T13:37:48.481Z,18.90
2019-05-01T13:40:18.713Z,18.90
2019-05-01T13:42:48.127Z,19.00
2019-05-01T13:45:17.925Z,19.00
2019-05-01T13:47:47.382Z,18.90
2019-05-01T13:50:16.869Z,18.90
2019-05-01T13:52:46.311Z,18.90
2019-05-01T13:55:16.111Z,18.90
2019-05-01T13:57:45.551Z,18.90
2019-05-01T14:00:16.115Z,18.90
2019-05-01T14:02:45.603Z,18.90
2019-05-01T14:05:15.124Z,18.90
2019-05-01T14:07:44.476Z,18.90
2019-05-01T14:10:14.599Z,18.90
2019-05-01T14:12:44.036Z,18.90
2019-05-01T14:15:13.587Z,19.00
2019-05-01T14:17:42.996Z,19.00
2019-05-01T14:20:29.819Z,19.00
2019-05-01T14:23:03.733Z,19.00
2019-05-01T14:25:50.784Z,19.10
2019-05-01T14:28:20.224Z,19.10
2019-05-01T14:30:49.684Z,19.10
2019-05-01T14:33:19.153Z,19.10
2019-05-01T14:35:48.608Z,19.10
2019-05-01T14:38:17.955Z,19.10
2019-05-01T14:40:47.341Z,19.20
2019-05-01T14:43:16.785Z,19.20
2019-05-01T14:45:46.248Z,19.20
2019-05-01T14:48:15.712Z,19.20
2019-05-01T14:50:45.041Z,19.10
2019-05-01T14:53:14.454Z,19.10
2019-05-01T14:55:43.944Z,19.10
2019-05-01T14:58:13.424Z,19.10
2019-05-01T15:00:42.884Z,19.20
2019-05-01T15:03:12.266Z,19.20
2019-05-01T15:05:41.650Z,19.20
2019-05-01T15:08:11.030Z,19.30
2019-05-01T15:10:40.371Z,19.30
2019-05-01T15:13:20.302Z,19.30
2019-05-01T15:16:03.967Z,19.30
2019-05-01T15:18:43.925Z,19.20
2019-05-01T15:21:13.279Z,19.30
2019-05-01T15:23:53.021Z,19.30
2019-05-01T15:26:13.822Z,19.30
2019-05-01T15:28:43.255Z,19.30
2019-05-01T15:31:12.697Z,19.30
2019-05-01T15:33:42.062Z,19.20
2019-05-01T15:36:11.424Z,19.30
2019-05-01T15:38:40.850Z,19.30
2019-05-01T15:41:27.810Z,19.30
2019-05-01T15:44:19.061Z,19.30
2019-05-01T15:46:48.594Z,19.30
2019-05-01T15:49:17.984Z,19.30
2019-05-01T15:51:47.404Z,19.40
2019-05-01T15:54:16.752Z,19.30
2019-05-01T15:56:46.184Z,19.40
2019-05-01T15:59:15.568Z,19.30
2019-05-01T16:01:44.895Z,19.30
2019-05-01T16:04:14.246Z,19.30
2019-05-01T16:06:43.655Z,19.30
2019-05-01T16:09:13.024Z,19.30
2019-05-01T16:12:13.314Z,19.30
2019-05-01T16:14:45.715Z,19.30
2019-05-01T16:17:15.082Z,19.30
2019-05-01T16:19:44.538Z,19.30
2019-05-01T16:22:13.897Z,19.40
2019-05-01T16:24:43.513Z,19.40
2019-05-01T16:27:12.927Z,19.40
2019-05-01T16:29:42.354Z,19.40
2019-05-01T16:32:11.786Z,19.40
2019-05-01T16:34:41.209Z,19.40
2019-05-01T16:37:10.665Z,19.40
2019-05-01T16:39:58.998Z,19.40
2019-05-01T16:42:36.159Z,19.40
2019-05-01T16:45:06.812Z,19.30
2019-05-01T16:47:36.226Z,19.30
2019-05-01T16:50:07.877Z,19.30
2019-05-01T16:52:37.608Z,19.40
2019-05-01T16:55:07.974Z,19.40
2019-05-01T16:57:37.320Z,19.40
2019-05-01T17:00:09.425Z,19.40
2019-05-01T17:02:54.956Z,19.50
2019-05-01T17:05:46.147Z,19.40
2019-05-01T17:08:49.455Z,19.40
2019-05-01T17:11:21.556Z,19.40
2019-05-01T17:13:50.985Z,19.30
2019-05-01T17:16:20.457Z,19.30
2019-05-01T17:18:49.837Z,19.20
2019-05-01T17:21:19.206Z,19.20
2019-05-01T17:23:48.653Z,19.10
2019-05-01T17:26:18.145Z,19.10
2019-05-01T17:28:47.540Z,19.00
2019-05-01T17:31:16.950Z,18.90
2019-05-01T17:33:46.415Z,18.90
2019-05-01T17:36:15.826Z,18.90
2019-05-01T17:38:49.786Z,18.80
2019-05-01T17:41:16.290Z,18.80
2019-05-01T17:43:49.375Z,18.70
2019-05-01T17:46:16.828Z,18.70
2019-05-01T17:48:46.176Z,18.60
2019-05-01T17:51:15.622Z,18.60
2019-05-01T17:53:44.964Z,18.60
2019-05-01T17:56:15.422Z,18.50
2019-05-01T17:58:45.471Z,18.50
2019-05-01T18:01:45.797Z,18.40
2019-05-01T18:04:40.139Z,18.40
2019-05-01T18:07:09.731Z,18.40
2019-05-01T18:09:39.147Z,18.40
2019-05-01T18:12:08.504Z,18.30
2019-05-01T18:14:37.959Z,18.30
2019-05-01T18:17:07.470Z,18.30
2019-05-01T18:19:36.803Z,18.20
2019-05-01T18:22:16.634Z,18.20
2019-05-01T18:25:07.608Z,18.20
2019-05-01T18:28:14.066Z,18.10
2019-05-01T18:30:44.352Z,18.10
2019-05-01T18:33:13.729Z,18.00
2019-05-01T18:35:44.893Z,18.00
2019-05-01T18:38:33.206Z,17.90
2019-05-01T18:41:21.566Z,17.90
2019-05-01T18:43:51.093Z,17.80
2019-05-01T18:46:20.441Z,17.80
2019-05-01T18:48:49.829Z,17.70
2019-05-01T18:51:19.191Z,17.70
2019-05-01T18:53:48.560Z,17.70
2019-05-01T18:56:18.051Z,17.70
2019-05-01T18:58:47.515Z,17.60
2019-05-01T19:01:16.873Z,17.60
2019-05-01T19:03:46.229Z,17.60
2019-05-01T19:06:15.609Z,17.50
2019-05-01T19:08:45.135Z,17.50
2019-05-01T19:11:15.320Z,17.50
2019-05-01T19:13:44.683Z,17.50
2019-05-01T19:16:13.975Z,17.40
2019-05-01T19:18:43.330Z,17.40
2019-05-01T19:21:13.008Z,17.40
2019-05-01T19:23:42.685Z,17.40
2019-05-01T19:26:13.796Z,17.30
2019-05-01T19:28:43.800Z,17.30
2019-05-01T19:31:13.963Z,17.30
2019-05-01T19:33:44.215Z,17.20
2019-05-01T19:36:14.598Z,17.20
2019-05-01T19:38:44.713Z,17.20
2019-05-01T19:41:17.235Z,17.20
2019-05-01T19:43:47.398Z,17.10
2019-05-01T19:46:17.609Z,17.10
2019-05-01T19:48:50.798Z,17.10
2019-05-01T19:51:24.182Z,17.10
2019-05-01T19:53:53.529Z,17.10
2019-05-01T19:56:23.947Z,17.00
2019-05-01T19:58:54.133Z,17.00
2019-05-01T20:01:24.314Z,17.00
2019-05-01T20:03:54.579Z,17.00
2019-05-01T20:06:24.753Z,17.00
2019-05-01T20:08:54.631Z,16.90
2019-05-01T20:11:24.741Z,16.90
2019-05-01T20:13:54.872Z,16.90
2019-05-01T20:16:24.745Z,16.80
2019-05-01T20:18:54.381Z,16.80
2019-05-01T20:21:24.551Z,16.80
2019-05-01T20:23:54.659Z,16.80
2019-05-01T20:26:27.049Z,16.70
2019-05-01T20:28:55.269Z,16.70
2019-05-01T20:31:25.794Z,16.70
2019-05-01T20:33:55.873Z,16.70
2019-05-01T20:36:25.353Z,16.70
2019-05-01T20:38:54.928Z,16.60
2019-05-01T20:41:24.362Z,16.60
2019-05-01T20:43:53.791Z,16.60
2019-05-01T20:46:26.213Z,16.60
2019-05-01T20:48:55.899Z,16.60
2019-05-01T20:51:25.489Z,16.50
2019-05-01T20:53:55.212Z,16.50
2019-05-01T20:56:30.187Z,16.50
2019-05-01T20:59:03.344Z,16.40
2019-05-01T21:01:31.186Z,16.40
2019-05-01T21:04:25.654Z,16.40
2019-05-01T21:07:10.572Z,16.40
2019-05-01T21:09:47.586Z,16.30
2019-05-01T21:12:13.152Z,16.30
2019-05-01T21:14:45.379Z,16.30
2019-05-01T21:17:14.930Z,16.30
2019-05-01T21:19:44.757Z,16.30
2019-05-01T21:22:14.348Z,16.30
2019-05-01T21:24:44.499Z,16.20
2019-05-01T21:27:14.352Z,16.20
2019-05-01T21:29:44.487Z,16.20
2019-05-01T21:32:18.349Z,16.20
2019-05-01T21:34:45.480Z,16.20
2019-05-01T21:37:14.923Z,16.10
2019-05-01T21:39:44.325Z,16.10
2019-05-01T21:42:15.931Z,16.10
2019-05-01T21:44:44.857Z,16.10
2019-05-01T21:47:14.198Z,16.10
2019-05-01T21:49:43.582Z,16.00
2019-05-01T21:52:13.566Z,16.00
2019-05-01T21:54:43.221Z,16.00
2019-05-01T21:57:17.272Z,16.00
2019-05-01T21:59:44.756Z,15.90
2019-05-01T22:02:14.741Z,15.90
2019-05-01T22:04:44.201Z,15.90
2019-05-01T22:07:13.548Z,15.90
2019-05-01T22:09:45.718Z,15.90
2019-05-01T22:12:14.457Z,15.80
2019-05-01T22:14:59.740Z,15.80
2019-05-01T22:17:45.877Z,15.80
2019-05-01T22:20:17.692Z,15.80
2019-05-01T22:22:56.872Z,15.80
2019-05-01T22:25:30.432Z,15.80
2019-05-01T22:28:14.049Z,15.70
2019-05-01T22:30:49.034Z,15.70
2019-05-01T22:33:23.327Z,15.70
2019-05-01T22:35:53.459Z,15.70
2019-05-01T22:38:22.898Z,15.70
2019-05-01T22:41:11.970Z,15.70
2019-05-01T22:43:41.398Z,15.70
2019-05-01T22:46:19.975Z,15.70
2019-05-01T22:48:49.406Z,15.60
2019-05-01T22:51:22.123Z,15.60
2019-05-01T22:53:54.856Z,15.60
2019-05-01T22:56:25.348Z,15.60
2019-05-01T22:58:54.783Z,15.60
2019-05-01T23:01:25.810Z,15.50
2019-05-01T23:03:57.219Z,15.60
2019-05-01T23:06:26.859Z,15.60
2019-05-01T23:08:56.233Z,15.50
2019-05-01T23:11:27.251Z,15.50
2019-05-01T23:13:56.658Z,15.50
2019-05-01T23:16:29.023Z,15.50
2019-05-01T23:18:59.417Z,15.50
2019-05-01T23:21:28.786Z,15.50
2019-05-01T23:24:02.040Z,15.50
2019-05-01T23:26:29.543Z,15.50
2019-05-01T23:29:00.075Z,15.40
2019-05-01T23:31:29.655Z,15.40
2019-05-01T23:33:59.009Z,15.40
2019-05-01T23:36:28.460Z,15.40
2019-05-01T23:38:57.912Z,15.40
2019-05-01T23:41:44.695Z,15.40
2019-05-01T23:44:03.618Z,15.40
2019-05-01T23:46:31.005Z,15.40
2019-05-01T23:49:00.395Z,15.30
2019-05-01T23:51:29.919Z,15.30
2019-05-01T23:53:59.561Z,15.30
2019-05-01T23:56:31.050Z,15.20
2019-05-01T23:59:00.512Z,15.20
